Time;durP1;ratioP1;P1;durP2;ratioP2;P2;SDS_P1;SDS_P2;PMS_P1;PMS_P2;Temp;Humidity;BMP_temperature;BMP_pressure;BME280_temperature;BME280_humidity;BME280_pressure;Samples;Min_cycle;Max_cycle;Signal;HPM_P1;HPM_P2
2022/02/20 00:02:01;;;;;;;2.15;1.62;;;;;;;13.70;60.49;99114.55;1804804;78;21002;-63
2022/02/20 00:04:27;;;;;;;2.17;1.67;;;;;;;13.68;60.52;99119.80;1792561;80;21607;-63
2022/02/20 00:06:54;;;;;;;2.00;1.70;;;;;;;13.66;60.56;99113.84;1820244;78;21021;-62
2022/02/20 00:09:21;;;;;;;1.60;1.40;;;;;;;13.64;60.59;99122.05;1825832;78;21004;-63
2022/02/20 00:11:48;;;;;;;2.40;1.70;;;;;;;13.61;60.63;99126.44;1826583;78;21129;-62
2022/02/20 00:14:15;;;;;;;2.22;1.70;;;;;;;13.59;60.66;99127.68;1826584;78;20978;-62
2022/02/20 00:16:42;;;;;;;2.40;1.85;;;;;;;13.57;60.68;99125.21;1799008;78;21072;-62
2022/02/20 00:19:10;;;;;;;2.45;1.80;;;;;;;13.55;60.72;99137.41;1811091;78;21496;-62
2022/02/20 00:21:36;;;;;;;2.27;1.72;;;;;;;13.54;60.75;99135.78;1826782;78;21036;-62
2022/02/20 00:24:04;;;;;;;2.15;1.50;;;;;;;13.51;60.77;99134.84;1826728;77;21068;-62
2022/02/20 00:26:30;;;;;;;1.92;1.50;;;;;;;13.51;60.82;99129.50;1826669;78;21076;-62
2022/02/20 00:28:58;;;;;;;2.05;1.82;;;;;;;13.49;60.81;99137.41;1825254;77;20990;-62
2022/02/20 00:31:26;;;;;;;2.20;1.70;;;;;;;13.48;60.82;99140.60;1825738;77;21021;-62
2022/02/20 00:33:52;;;;;;;2.00;1.80;;;;;;;13.46;60.84;99143.98;1809302;78;21068;-63
2022/02/20 00:36:18;;;;;;;2.52;1.70;;;;;;;13.46;60.85;99143.98;1814099;78;21094;-63
2022/02/20 00:38:46;;;;;;;1.92;1.70;;;;;;;13.44;60.85;99150.52;1826704;78;21005;-62
2022/02/20 00:41:12;;;;;;;2.25;1.80;;;;;;;13.43;60.91;99148.89;1826145;78;21572;-62
2022/02/20 00:43:38;;;;;;;1.60;1.40;;;;;;;13.42;60.87;99156.05;1825133;78;21504;-63
2022/02/20 00:46:06;;;;;;;2.00;1.42;;;;;;;13.41;60.88;99155.77;1823991;77;21559;-62
2022/02/20 00:48:33;;;;;;;1.40;1.30;;;;;;;13.41;60.86;99165.62;1823939;78;21194;-63
2022/02/20 00:50:59;;;;;;;1.72;1.60;;;;;;;13.40;60.92;99170.63;1811827;78;21961;-63
2022/02/20 00:53:26;;;;;;;2.00;1.60;;;;;;;13.39;60.89;99168.48;1817218;78;21143;-62
2022/02/20 00:55:53;;;;;;;2.47;1.50;;;;;;;13.38;60.87;99164.16;1826557;78;21014;-63
2022/02/20 00:58:19;;;;;;;1.45;1.32;;;;;;;13.36;60.89;99163.53;1826665;78;21575;-63
2022/02/20 01:00:46;;;;;;;2.30;1.60;;;;;;;13.36;60.87;99168.34;1825782;78;21137;-62
2022/02/20 01:03:12;;;;;;;2.02;1.47;;;;;;;13.35;60.86;99171.24;1824831;78;21528;-63
2022/02/20 01:05:39;;;;;;;2.22;1.70;;;;;;;13.33;60.90;99184.77;1815803;78;21025;-63
2022/02/20 01:08:08;;;;;;;1.65;1.55;;;;;;;13.34;60.85;99181.59;1807874;79;21073;-62
2022/02/20 01:10:36;;;;;;;2.12;1.60;;;;;;;13.33;60.85;99177.29;1822343;78;21036;-63
2022/02/20 01:13:05;;;;;;;2.27;1.75;;;;;;;13.31;60.85;99190.00;1821530;78;21531;-62
2022/02/20 01:15:32;;;;;;;1.70;1.47;;;;;;;13.31;60.85;99193.48;1813558;78;21068;-63
2022/02/20 01:17:58;;;;;;;1.85;1.60;;;;;;;13.30;60.81;99200.35;1787959;80;21025;-62
2022/02/20 01:20:26;;;;;;;2.10;1.50;;;;;;;13.29;60.82;99205.33;1791057;78;21084;-62
2022/02/20 01:22:53;;;;;;;1.57;1.30;;;;;;;13.28;60.82;99203.70;1824800;78;21005;-63
2022/02/20 01:25:20;;;;;;;2.17;1.47;;;;;;;13.27;60.82;99206.89;1824834;78;21122;-61
2022/02/20 01:27:46;;;;;;;2.47;1.67;;;;;;;13.27;60.84;99211.38;1826286;78;21583;-63
2022/02/20 01:30:12;;;;;;;1.77;1.42;;;;;;;13.25;60.83;99204.92;1825899;78;21013;-63
2022/02/20 01:32:39;;;;;;;1.67;1.50;;;;;;;13.25;60.80;99214.75;1798947;78;20977;-62
2022/02/20 01:35:07;;;;;;;2.35;1.62;;;;;;;13.24;60.81;99215.79;1787818;80;21024;-62
2022/02/20 01:37:35;;;;;;;2.33;1.87;;;;;;;13.23;60.80;99220.80;1822643;78;20989;-63
2022/02/20 01:40:03;;;;;;;1.30;1.20;;;;;;;13.22;60.80;99226.65;1820002;78;21076;-63
2022/02/20 01:42:31;;;;;;;2.60;1.55;;;;;;;13.22;60.77;99220.50;1792330;80;21005;-64
2022/02/20 01:45:00;;;;;;;2.17;1.52;;;;;;;13.22;60.77;99231.17;1824728;78;21060;-63
2022/02/20 01:47:29;;;;;;;2.92;1.55;;;;;;;13.21;60.79;99228.99;1826743;78;20993;-62
2022/02/20 01:49:56;;;;;;;1.75;1.60;;;;;;;13.20;60.79;99231.87;1817487;78;22006;-63
2022/02/20 01:52:23;;;;;;;2.00;1.60;;;;;;;13.18;60.79;99228.89;1800509;78;21053;-63
2022/02/20 01:54:51;;;;;;;2.50;1.50;;;;;;;13.17;60.79;99231.26;1827079;77;21033;-62
2022/02/20 01:57:20;;;;;;;2.15;1.70;;;;;;;13.17;60.79;99238.41;1826598;78;21507;-62
2022/02/20 01:59:49;;;;;;;2.05;1.50;;;;;;;13.15;60.81;99241.30;1814228;78;21088;-62
2022/02/20 02:02:34;;;;;;;1.30;1.20;;;;;;;13.16;60.77;99255.45;1801941;77;21132;-62
2022/02/20 02:05:03;;;;;;;2.25;1.57;;;;;;;13.15;60.80;99255.97;1825489;78;21555;-62
2022/02/20 02:07:31;;;;;;;1.75;1.40;;;;;;;13.13;60.82;99256.67;1826030;78;21005;-63
2022/02/20 02:10:09;;;;;;;2.40;1.60;;;;;;;13.13;60.81;99255.34;1760058;81;21032;-62
2022/02/20 02:12:39;;;;;;;1.92;1.40;;;;;;;13.13;60.81;99262.50;1799692;78;21097;-63
2022/02/20 02:15:09;;;;;;;1.95;1.40;;;;;;;13.12;60.80;99261.69;1793418;79;21223;-61
2022/02/20 02:17:53;;;;;;;1.62;1.52;;;;;;;13.11;60.78;99260.54;1797838;78;21021;-63
2022/02/20 02:20:38;;;;;;;2.83;1.92;;;;;;;13.09;60.80;99258.06;1816396;77;21005;-64
2022/02/20 02:23:17;;;;;;;1.35;1.22;;;;;;;13.09;60.80;99253.25;1821409;78;21057;-63
2022/02/20 02:25:48;;;;;;;2.02;1.40;;;;;;;13.08;60.80;99251.62;1813668;78;21496;-62
2022/02/20 02:28:34;;;;;;;2.87;1.62;;;;;;;13.07;60.84;99250.77;1823562;78;22325;-62
2022/02/20 02:31:04;;;;;;;1.57;1.40;;;;;;;13.06;60.81;99254.47;1823577;78;21064;-62
2022/02/20 02:33:33;;;;;;;1.90;1.40;;;;;;;13.06;60.79;99257.14;1820576;78;20994;-63
2022/02/20 02:36:00;;;;;;;2.42;1.50;;;;;;;13.05;60.82;99254.14;1812539;77;21005;-62
2022/02/20 02:38:29;;;;;;;1.98;1.42;;;;;;;13.05;60.76;99258.14;1826104;78;20998;-62
2022/02/20 02:41:05;;;;;;;2.65;2.02;;;;;;;13.03;60.75;99249.52;1826355;78;21100;-64
2022/02/20 02:43:36;;;;;;;1.80;1.50;;;;;;;13.03;60.77;99262.84;1826001;78;20997;-66
2022/02/20 02:46:04;;;;;;;2.67;1.67;;;;;;;13.03;60.74;99261.52;1824108;78;21022;-66
2022/02/20 02:48:31;;;;;;;2.17;1.60;;;;;;;13.02;60.78;99258.55;1823847;78;21061;-66
2022/02/20 02:51:04;;;;;;;1.62;1.52;;;;;;;13.01;60.76;99259.56;1821546;78;21013;-66
2022/02/20 02:53:29;;;;;;;1.80;1.47;;;;;;;13.02;60.75;99262.55;1820607;77;21041;-67
2022/02/20 02:55:56;;;;;;;1.70;1.50;;;;;;;13.01;60.71;99262.74;1792335;78;21087;-66
2022/02/20 02:58:24;;;;;;;2.37;1.52;;;;;;;13.01;60.71;99264.89;1822490;78;21568;-66
2022/02/20 03:00:53;;;;;;;2.77;1.77;;;;;;;13.00;60.73;99268.59;1821606;78;21069;-66
2022/02/20 03:03:21;;;;;;;2.50;1.67;;;;;;;13.00;60.70;99264.59;1821897;78;21010;-66
2022/02/20 03:05:47;;;;;;;1.62;1.50;;;;;;;13.01;60.66;99270.74;1814041;78;22140;-65
2022/02/20 03:08:16;;;;;;;1.82;1.40;;;;;;;12.99;60.66;99275.75;1818772;78;21013;-66
2022/02/20 03:10:43;;;;;;;2.15;1.50;;;;;;;12.99;60.64;99281.59;1812807;78;21033;-66
2022/02/20 03:13:13;;;;;;;1.90;1.50;;;;;;;12.98;60.63;99287.45;1821477;78;21029;-66
2022/02/20 03:15:41;;;;;;;3.00;1.80;;;;;;;12.98;60.60;99290.63;1818781;78;21024;-66
2022/02/20 03:18:08;;;;;;;2.62;1.47;;;;;;;12.98;60.60;99297.30;1823406;78;21559;-65
2022/02/20 03:20:36;;;;;;;1.85;1.60;;;;;;;12.97;60.59;99296.97;1784603;80;21049;-65
2022/02/20 03:23:02;;;;;;;1.57;1.47;;;;;;;12.98;60.56;99301.30;1774617;80;21044;-65
2022/02/20 03:25:31;;;;;;;1.70;1.40;;;;;;;12.96;60.54;99302.81;1755578;81;21541;-66
2022/02/20 03:28:00;;;;;;;1.47;1.35;;;;;;;12.96;60.53;99301.97;1756028;81;21085;-66
2022/02/20 03:30:29;;;;;;;1.85;1.30;;;;;;;12.96;60.54;99303.30;1778002;80;21223;-67
2022/02/20 03:32:57;;;;;;;2.27;1.87;;;;;;;12.94;60.52;99302.19;1767027;80;21002;-66
2022/02/20 03:35:24;;;;;;;1.95;1.37;;;;;;;12.94;60.50;99308.00;1767558;81;21076;-64
2022/02/20 03:37:51;;;;;;;1.77;1.60;;;;;;;12.94;60.50;99305.34;1768260;81;21049;-66
2022/02/20 03:40:19;;;;;;;2.50;1.60;;;;;;;12.93;60.47;99304.52;1768155;81;21084;-66
2022/02/20 03:42:47;;;;;;;2.08;1.40;;;;;;;12.92;60.46;99310.89;1770063;80;22390;-67
2022/02/20 03:45:32;;;;;;;2.02;1.52;;;;;;;12.92;60.44;99310.89;1778701;80;21536;-66
2022/02/20 03:47:58;;;;;;;2.02;1.65;;;;;;;12.92;60.45;99300.71;1751652;80;21052;-65
2022/02/20 03:50:26;;;;;;;2.35;1.75;;;;;;;12.91;60.45;99305.74;1750472;81;21503;-66
2022/02/20 03:52:55;;;;;;;1.98;1.30;;;;;;;12.90;60.44;99308.08;1762483;80;21175;-65
2022/02/20 03:55:23;;;;;;;2.47;1.50;;;;;;;12.89;60.45;99305.12;1751855;82;21120;-65
2022/02/20 03:57:51;;;;;;;2.20;1.50;;;;;;;12.89;60.44;99305.12;1757194;81;21032;-65
2022/02/20 04:00:22;;;;;;;2.08;1.30;;;;;;;12.88;60.43;99317.60;1755329;80;21006;-65
2022/02/20 04:02:54;;;;;;;1.50;1.32;;;;;;;12.88;60.44;99320.78;1782157;80;21003;-65
2022/02/20 04:05:21;;;;;;;2.37;1.72;;;;;;;12.87;60.40;99321.30;1777104;80;21024;-65
2022/02/20 04:07:50;;;;;;;2.02;1.60;;;;;;;12.86;60.41;99320.97;1752393;81;21151;-66
2022/02/20 04:10:18;;;;;;;1.87;1.50;;;;;;;12.86;60.39;99323.64;1723132;83;21085;-65
2022/02/20 04:12:45;;;;;;;1.77;1.50;;;;;;;12.85;60.36;99317.19;1753980;80;21072;-66
2022/02/20 04:15:15;;;;;;;1.57;1.45;;;;;;;12.85;60.35;99321.19;1725412;83;21088;-66
2022/02/20 04:17:44;;;;;;;2.37;1.70;;;;;;;12.85;60.33;99318.52;1752473;81;21041;-67
2022/02/20 04:20:12;;;;;;;1.67;1.50;;;;;;;12.85;60.32;99318.52;1723943;83;21088;-66
2022/02/20 04:22:39;;;;;;;1.85;1.50;;;;;;;12.84;60.30;99314.19;1740702;81;21021;-65
2022/02/20 04:25:08;;;;;;;2.08;1.42;;;;;;;12.83;60.28;99323.22;1752585;81;21077;-66
2022/02/20 04:27:35;;;;;;;1.92;1.60;;;;;;;12.83;60.27;99321.89;1747553;81;21115;-65
2022/02/20 04:30:05;;;;;;;1.77;1.47;;;;;;;12.82;60.27;99325.05;1752330;81;21069;-66
2022/02/20 04:32:33;;;;;;;3.65;1.50;;;;;;;12.81;60.24;99319.92;1723872;83;21885;-66
2022/02/20 04:35:01;;;;;;;1.72;1.47;;;;;;;12.81;60.22;99324.74;1726872;81;21060;-66
2022/02/20 04:37:28;;;;;;;2.00;1.60;;;;;;;12.79;60.21;99330.26;1672299;84;21064;-66
2022/02/20 04:39:55;;;;;;;2.95;1.70;;;;;;;12.80;60.18;99329.74;1706271;81;21021;-66
2022/02/20 04:42:21;;;;;;;1.65;1.20;;;;;;;12.79;60.17;99326.27;1725649;83;21097;-66
2022/02/20 04:44:52;;;;;;;2.17;1.70;;;;;;;12.78;60.14;99330.45;1734583;80;21144;-66
2022/02/20 04:47:20;;;;;;;3.52;2.20;;;;;;;12.78;60.14;99329.11;1724532;82;21037;-65
2022/02/20 04:49:47;;;;;;;2.17;1.65;;;;;;;12.77;60.12;99326.97;1746566;81;21517;-66
2022/02/20 04:52:15;;;;;;;2.00;1.75;;;;;;;12.76;60.11;99332.48;1725060;82;21006;-67
2022/02/20 04:55:01;;;;;;;2.30;1.80;;;;;;;12.76;60.11;99328.48;1752785;81;21068;-65
2022/02/20 04:57:34;;;;;;;4.08;1.70;;;;;;;12.75;60.06;99340.17;1725352;83;21090;-66
2022/02/20 05:00:05;;;;;;;2.08;1.55;;;;;;;12.74;60.06;99343.33;1756181;81;21072;-66
2022/02/20 05:02:33;;;;;;;1.77;1.47;;;;;;;12.73;60.07;99351.54;1749035;81;21017;-66
2022/02/20 05:05:00;;;;;;;2.67;1.85;;;;;;;12.72;60.07;99358.69;1723666;83;21104;-67
2022/02/20 05:07:27;;;;;;;2.33;1.60;;;;;;;12.71;60.06;99355.72;1782673;80;20999;-67
2022/02/20 05:09:54;;;;;;;1.65;1.55;;;;;;;12.71;60.04;99358.88;1781453;80;21208;-66
2022/02/20 05:12:21;;;;;;;2.25;1.70;;;;;;;12.70;60.03;99366.56;1773430;79;21541;-68
2022/02/20 05:14:50;;;;;;;1.72;1.42;;;;;;;12.69;60.03;99368.91;1757263;81;21089;-67
2022/02/20 05:17:40;;;;;;;2.10;1.57;;;;;;;12.68;60.00;99365.42;1757371;81;20994;-67
2022/02/20 05:20:09;;;;;;;;;;;;;;;12.68;59.99;99377.41;1759883;81;21085;-67
2022/02/20 05:22:37;;;;;;;2.37;1.92;;;;;;;12.68;60.02;99383.26;1772878;80;21173;-68
2022/02/20 05:25:06;;;;;;;2.20;1.40;;;;;;;12.66;60.01;99388.77;1753214;80;21130;-66
2022/02/20 05:27:35;;;;;;;1.45;1.32;;;;;;;12.64;60.03;99388.14;1725297;81;21036;-67
2022/02/20 05:30:01;;;;;;;2.10;1.70;;;;;;;12.65;60.04;99392.47;1764600;80;21105;-66
2022/02/20 05:32:30;;;;;;;2.40;1.50;;;;;;;12.64;60.00;99392.66;1778481;80;21061;-66
2022/02/20 05:35:01;;;;;;;2.47;1.60;;;;;;;12.64;60.01;99402.80;1761976;80;21132;-66
2022/02/20 05:37:33;;;;;;;1.82;1.67;;;;;;;12.63;60.03;99403.80;1786872;79;21065;-66
2022/02/20 05:40:00;;;;;;;2.00;1.77;;;;;;;12.63;60.03;99394.98;1739941;80;21041;-68
2022/02/20 05:42:27;;;;;;;2.30;1.70;;;;;;;12.63;60.03;99399.80;1785786;79;21056;-67
2022/02/20 05:44:55;;;;;;;3.83;1.70;;;;;;;12.64;60.03;99396.66;1767885;80;20988;-68
2022/02/20 05:47:22;;;;;;;2.80;1.95;;;;;;;12.63;60.02;99397.14;1745301;80;21071;-67
2022/02/20 05:49:49;;;;;;;2.27;1.77;;;;;;;12.62;60.04;99403.50;1761561;80;20992;-68
2022/02/20 05:52:16;;;;;;;2.92;1.87;;;;;;;12.63;60.07;99414.45;1787310;80;21052;-68
2022/02/20 05:54:44;;;;;;;2.17;1.75;;;;;;;12.63;60.05;99421.64;1759889;81;20994;-68
2022/02/20 05:57:12;;;;;;;1.67;1.50;;;;;;;12.63;60.04;99417.64;1787364;80;21085;-67
2022/02/20 05:59:40;;;;;;;2.50;1.67;;;;;;;12.64;60.06;99420.64;1769856;80;21116;-68
2022/02/20 06:02:07;;;;;;;2.67;2.00;;;;;;;12.64;60.05;99432.11;1762324;80;21009;-67
2022/02/20 06:04:34;;;;;;;2.40;1.90;;;;;;;12.64;60.06;99432.11;1787331;80;21043;-69
2022/02/20 06:07:03;;;;;;;2.67;1.70;;;;;;;12.64;60.06;99428.11;1733773;81;21022;-67
2022/02/20 06:09:48;;;;;;;3.10;1.82;;;;;;;12.65;60.10;99434.27;1764018;80;21049;-67
2022/02/20 06:12:17;;;;;;;2.98;1.82;;;;;;;12.65;60.08;99437.77;1788320;80;21145;-69
2022/02/20 06:14:58;;;;;;;2.37;1.82;;;;;;;12.64;60.10;99437.44;1720815;80;21053;-68
2022/02/20 06:17:44;;;;;;;2.47;1.55;;;;;;;12.65;60.09;99451.58;1778226;80;21072;-68
2022/02/20 06:20:15;;;;;;;1.77;1.60;;;;;;;12.64;60.15;99453.95;1745747;80;21491;-68
2022/02/20 06:22:56;;;;;;;2.40;1.87;;;;;;;12.64;60.14;99449.44;1764454;80;21045;-68
2022/02/20 06:25:44;;;;;;;2.27;1.70;;;;;;;12.65;60.17;99451.09;1766074;80;21884;-68
2022/02/20 06:28:13;;;;;;;3.05;1.82;;;;;;;12.65;60.19;99453.77;1769413;80;21002;-69
2022/02/20 06:30:40;;;;;;;2.87;2.00;;;;;;;12.65;60.22;99455.58;1776641;80;21544;-68
2022/02/20 06:33:08;;;;;;;1.92;1.72;;;;;;;12.66;60.21;99458.06;1771375;80;21159;-68
2022/02/20 06:35:36;;;;;;;1.98;1.45;;;;;;;12.67;60.20;99456.22;1756535;81;21647;-67
2022/02/20 06:38:05;;;;;;;2.62;1.82;;;;;;;12.68;60.25;99460.55;1758573;81;21096;-68
2022/02/20 06:40:33;;;;;;;2.17;1.85;;;;;;;12.68;60.23;99468.03;1788506;80;20993;-68
2022/02/20 06:43:01;;;;;;;2.75;1.95;;;;;;;12.69;60.21;99464.36;1756648;81;21524;-67
2022/02/20 06:45:29;;;;;;;2.65;2.40;;;;;;;12.70;60.19;99469.99;1752894;81;21489;-69
2022/02/20 06:48:09;;;;;;;2.30;1.80;;;;;;;12.70;60.18;99462.00;1685566;81;21124;-69
2022/02/20 06:50:55;;;;;;;2.10;1.62;;;;;;;12.71;60.19;99468.99;1785306;80;21124;-68
2022/02/20 06:53:29;;;;;;;2.22;1.90;;;;;;;12.71;60.12;99474.33;1766145;79;21038;-67
2022/02/20 06:56:00;;;;;;;2.42;1.80;;;;;;;12.71;60.19;99484.98;1782653;80;21040;-68
2022/02/20 06:58:27;;;;;;;2.08;1.50;;;;;;;12.73;60.15;99482.14;1765408;79;21103;-68
2022/02/20 07:00:53;;;;;;;2.10;1.70;;;;;;;12.74;60.14;99475.78;1790976;79;21053;-68
2022/02/20 07:03:19;;;;;;;2.75;2.10;;;;;;;12.73;60.14;99480.29;1759670;79;21154;-68
2022/02/20 07:05:46;;;;;;;2.35;1.90;;;;;;;12.76;60.15;99473.75;1792810;79;21532;-69
2022/02/20 07:08:12;;;;;;;2.35;1.80;;;;;;;12.76;60.16;99477.23;1764170;79;21107;-68
2022/02/20 07:10:39;;;;;;;2.10;1.82;;;;;;;12.77;60.13;99477.56;1758668;79;21038;-68
2022/02/20 07:13:06;;;;;;;2.75;1.98;;;;;;;12.78;60.15;99477.86;1765018;79;21049;-69
2022/02/20 07:15:33;;;;;;;2.45;1.98;;;;;;;12.79;60.16;99480.86;1776916;79;21158;-67
2022/02/20 07:18:00;;;;;;;2.50;1.87;;;;;;;12.80;60.12;99477.69;1735085;81;21038;-67
2022/02/20 07:20:27;;;;;;;2.37;1.75;;;;;;;12.83;60.13;99484.50;1733658;82;21031;-67
2022/02/20 07:22:54;;;;;;;2.62;1.98;;;;;;;12.84;60.15;99484.80;1761910;79;21024;-67
2022/02/20 07:25:21;;;;;;;2.50;1.70;;;;;;;12.85;60.12;99485.13;1770837;79;21128;-68
2022/02/20 07:27:53;;;;;;;2.40;1.52;;;;;;;12.86;60.16;99489.44;1764553;79;21130;-68
2022/02/20 07:30:19;;;;;;;1.98;1.57;;;;;;;12.87;60.16;99487.10;1777708;79;21131;-68
2022/02/20 07:32:45;;;;;;;2.30;1.57;;;;;;;12.88;60.17;99491.41;1758253;79;21064;-67
2022/02/20 07:35:12;;;;;;;1.87;1.67;;;;;;;12.87;60.17;99484.44;1762707;81;21051;-67
2022/02/20 07:37:39;;;;;;;3.05;1.98;;;;;;;12.90;60.17;99492.03;1759892;80;21033;-68
2022/02/20 07:40:07;;;;;;;2.17;1.77;;;;;;;12.91;60.19;99481.70;1765375;80;21122;-68
2022/02/20 07:42:36;;;;;;;2.40;2.15;;;;;;;12.92;60.21;99480.19;1766861;79;21020;-68
2022/02/20 07:45:02;;;;;;;2.50;1.82;;;;;;;12.92;60.19;99473.52;1766458;79;21129;-68
2022/02/20 07:47:31;;;;;;;2.83;1.67;;;;;;;12.95;60.19;99464.31;1798600;79;21504;-69
2022/02/20 07:49:57;;;;;;;2.37;1.90;;;;;;;12.96;60.17;99465.45;1748740;79;21028;-68
2022/02/20 07:52:27;;;;;;;2.67;1.50;;;;;;;12.99;60.19;99470.91;1765237;81;21146;-68
2022/02/20 07:54:53;;;;;;;2.30;2.02;;;;;;;13.00;60.21;99464.58;1762551;80;21054;-68
2022/02/20 07:57:21;;;;;;;2.40;1.55;;;;;;;13.01;60.24;99464.88;1767305;80;21531;-66
2022/02/20 07:59:48;;;;;;;3.55;2.20;;;;;;;13.03;60.23;99464.17;1752933;81;21505;-67
2022/02/20 08:02:14;;;;;;;3.47;2.00;;;;;;;13.05;60.23;99470.66;1755281;81;21085;-67
2022/02/20 08:04:42;;;;;;;2.40;1.70;;;;;;;13.08;60.22;99460.95;1754854;81;21031;-68
2022/02/20 08:07:09;;;;;;;2.17;1.77;;;;;;;13.10;60.24;99458.92;1754144;81;21054;-69
2022/02/20 08:09:35;;;;;;;2.37;1.70;;;;;;;13.11;60.23;99450.70;1754815;81;21025;-68
2022/02/20 08:12:04;;;;;;;3.08;1.82;;;;;;;13.14;60.24;99450.33;1760715;80;21053;-68
2022/02/20 08:14:31;;;;;;;2.22;1.77;;;;;;;13.16;60.26;99457.63;1775385;80;21026;-68
2022/02/20 08:16:58;;;;;;;3.35;1.85;;;;;;;13.21;60.25;99460.23;1762057;80;22060;-68
2022/02/20 08:19:24;;;;;;;2.08;1.80;;;;;;;13.22;60.23;99461.89;1765204;80;20996;-68
2022/02/20 08:21:50;;;;;;;1.57;1.40;;;;;;;13.25;60.24;99470.83;1749986;80;21030;-68
2022/02/20 08:24:17;;;;;;;2.22;1.50;;;;;;;13.27;60.22;99464.79;1773457;80;21516;-69
2022/02/20 08:26:45;;;;;;;3.27;2.12;;;;;;;13.28;60.21;99464.60;1782618;80;21088;-67
2022/02/20 08:29:13;;;;;;;2.85;1.85;;;;;;;13.31;60.20;99464.78;1757856;80;21137;-67
2022/02/20 08:31:40;;;;;;;2.02;1.82;;;;;;;13.33;60.27;99475.56;1760278;79;21517;-67
2022/02/20 08:34:06;;;;;;;2.27;2.00;;;;;;;13.36;60.25;99480.50;1785000;80;21084;-67
2022/02/20 08:36:33;;;;;;;2.70;1.90;;;;;;;13.39;60.24;99479.31;1748496;80;21791;-67
2022/02/20 08:38:59;;;;;;;2.27;1.60;;;;;;;13.42;60.23;99474.90;1754719;81;21032;-68
2022/02/20 08:41:25;;;;;;;2.17;1.60;;;;;;;13.45;60.23;99467.86;1750158;80;21754;-67
2022/02/20 08:43:52;;;;;;;2.37;1.82;;;;;;;13.49;60.20;99468.30;1758365;80;21046;-68
2022/02/20 08:46:18;;;;;;;4.55;2.35;;;;;;;13.51;60.17;99433.72;1764524;80;21038;-68
2022/02/20 08:48:46;;;;;;;2.98;2.25;;;;;;;13.60;66.19;99443.75;1749005;80;21014;-69
2022/02/20 08:51:12;;;;;;;3.45;2.60;;;;;;;13.75;71.51;99440.46;1765062;80;21076;-66
2022/02/20 08:53:38;;;;;;;2.95;1.95;;;;;;;14.12;73.84;99438.91;1747406;81;21775;-66
2022/02/20 08:56:08;;;;;;;3.55;2.25;;;;;;;14.57;74.17;99443.31;1754438;81;20974;-67
2022/02/20 08:58:34;;;;;;;3.70;2.52;;;;;;;14.91;73.90;99438.84;1753842;81;21085;-69
2022/02/20 09:01:02;;;;;;;2.80;2.27;;;;;;;15.25;73.25;99444.54;1750696;81;21030;-65
2022/02/20 09:03:30;;;;;;;2.95;2.45;;;;;;;15.52;71.79;99444.01;1743326;81;21086;-66
2022/02/20 09:05:57;;;;;;;5.00;3.05;;;;;;;15.63;69.51;99433.20;1743995;80;21532;-64
2022/02/20 09:08:23;;;;;;;3.80;2.75;;;;;;;15.67;67.36;99430.93;1747070;81;21675;-66
2022/02/20 09:10:51;;;;;;;6.50;2.80;;;;;;;15.66;65.65;99439.45;1736754;81;21120;-65
2022/02/20 09:13:18;;;;;;;3.42;2.90;;;;;;;15.65;64.39;99445.05;1747805;81;21556;-67
2022/02/20 09:15:46;;;;;;;4.78;2.65;;;;;;;15.63;63.50;99443.09;1752167;81;21057;-63
2022/02/20 09:18:13;;;;;;;6.05;3.00;;;;;;;15.63;62.91;99445.77;1751518;81;21037;-63
2022/02/20 09:20:41;;;;;;;5.40;3.60;;;;;;;15.60;62.14;99447.52;1751919;81;21639;-62
2022/02/20 09:23:08;;;;;;;4.20;2.52;;;;;;;15.59;61.50;99442.68;1748294;81;21585;-68
2022/02/20 09:25:34;;;;;;;3.72;2.75;;;;;;;15.60;60.82;99446.17;1754086;81;21104;-65
2022/02/20 09:28:03;;;;;;;3.90;3.02;;;;;;;15.59;60.39;99453.39;1751998;81;21621;-67
2022/02/20 09:30:30;;;;;;;5.33;2.90;;;;;;;15.60;60.05;99444.83;1750287;81;22356;-67
2022/02/20 09:32:56;;;;;;;5.65;3.30;;;;;;;15.61;59.62;99454.00;1748575;81;21101;-67
2022/02/20 09:35:24;;;;;;;4.80;3.47;;;;;;;15.63;59.25;99462.65;1735338;81;22318;-72
2022/02/20 09:37:50;;;;;;;5.15;3.20;;;;;;;15.65;59.00;99467.28;1737497;81;21577;-67
2022/02/20 09:40:17;;;;;;;5.83;2.85;;;;;;;15.68;58.58;99458.00;1745643;81;21041;-68
2022/02/20 09:42:45;;;;;;;3.83;2.58;;;;;;;15.71;58.42;99448.22;1751366;81;21886;-68
2022/02/20 09:45:12;;;;;;;6.97;3.40;;;;;;;15.74;57.91;99443.80;1691358;81;21136;-69
2022/02/20 09:47:40;;;;;;;8.38;3.83;;;;;;;15.77;57.50;99463.48;1739297;81;21049;-67
2022/02/20 09:50:08;;;;;;;5.47;3.42;;;;;;;15.81;57.11;99451.31;1745017;80;21096;-72
2022/02/20 09:52:35;;;;;;;5.67;3.55;;;;;;;15.85;56.86;99451.20;1736558;80;21541;-68
2022/02/20 09:55:01;;;;;;;7.83;3.75;;;;;;;15.87;56.63;99446.45;1753420;80;21264;-68
2022/02/20 09:57:27;;;;;;;4.85;3.10;;;;;;;15.90;56.69;99458.63;1747577;81;21679;-70
2022/02/20 09:59:54;;;;;;;5.08;3.40;;;;;;;15.94;56.67;99431.72;1750937;81;21064;-66
2022/02/20 10:02:20;;;;;;;5.50;3.42;;;;;;;15.99;56.41;99441.27;1735374;81;21100;-69
2022/02/20 10:04:54;;;;;;;5.42;3.37;;;;;;;16.04;56.26;99421.89;1747813;81;21136;-69
2022/02/20 10:07:29;;;;;;;5.65;3.25;;;;;;;16.09;56.20;99432.28;1745640;81;21339;-66
2022/02/20 10:09:59;;;;;;;7.28;3.75;;;;;;;16.17;56.30;99429.05;1747039;81;21566;-67
2022/02/20 10:12:28;;;;;;;4.95;3.25;;;;;;;16.22;56.83;99419.33;1739114;81;21060;-65
2022/02/20 10:14:55;;;;;;;4.25;3.10;;;;;;;16.29;56.78;99422.81;1752216;81;21516;-69
2022/02/20 10:17:23;;;;;;;5.47;3.40;;;;;;;16.36;56.69;99400.52;1749893;81;21053;-69
2022/02/20 10:20:10;;;;;;;6.08;3.45;;;;;;;16.42;56.33;99411.22;1733765;81;21131;-69
2022/02/20 10:22:56;;;;;;;6.75;3.52;;;;;;;16.50;56.22;99408.81;1737999;80;21592;-68
2022/02/20 10:25:43;;;;;;;4.85;3.15;;;;;;;16.57;56.07;99408.75;1643358;86;21179;-67
2022/02/20 10:28:29;;;;;;;4.80;3.08;;;;;;;16.64;56.00;99398.30;1653647;84;21073;-69
2022/02/20 10:30:58;;;;;;;6.67;3.10;;;;;;;16.73;55.81;99404.73;1728171;80;21341;-69
2022/02/20 10:33:24;;;;;;;4.95;3.47;;;;;;;16.81;55.71;99413.87;1744612;81;21097;-69
2022/02/20 10:35:53;;;;;;;3.45;2.75;;;;;;;16.88;55.56;99398.57;1717992;80;21086;-67
2022/02/20 10:38:23;;;;;;;3.70;2.90;;;;;;;16.99;59.52;99400.55;1748470;80;21148;-67
2022/02/20 10:40:56;;;;;;;4.62;2.70;;;;;;;17.22;62.23;99397.27;1757556;80;21014;-68
2022/02/20 10:43:33;;;;;;;3.05;2.40;;;;;;;17.56;62.70;99400.48;1770328;80;21060;-66
2022/02/20 10:46:12;;;;;;;3.50;2.58;;;;;;;17.86;62.54;99381.77;1760275;81;21150;-68
2022/02/20 10:48:44;;;;;;;3.08;2.42;;;;;;;18.16;62.05;99382.36;1762601;80;21278;-68
2022/02/20 10:51:12;;;;;;;5.30;2.58;;;;;;;18.43;61.59;99368.56;1764595;81;21069;-67
2022/02/20 10:53:40;;;;;;;5.12;2.90;;;;;;;18.65;61.10;99362.95;1754629;81;21552;-67
2022/02/20 10:56:06;;;;;;;3.60;2.47;;;;;;;18.89;60.77;99337.98;1763669;81;21136;-68
2022/02/20 10:58:35;;;;;;;6.40;2.55;;;;;;;19.09;60.29;99365.94;1763486;81;22092;-70
2022/02/20 11:01:03;;;;;;;6.05;3.10;;;;;;;19.27;59.92;99375.23;1756833;81;21608;-69
2022/02/20 11:03:31;;;;;;;5.67;3.47;;;;;;;19.44;59.63;99348.42;1736688;81;22141;-71
2022/02/20 11:05:59;;;;;;;7.03;3.00;;;;;;;19.60;59.38;99363.84;1763549;79;22458;-67
2022/02/20 11:08:28;;;;;;;4.65;2.90;;;;;;;19.75;59.21;99351.27;1746601;81;21100;-65
2022/02/20 11:12:47;;;;;;;8.08;3.10;;;;;;;20.01;59.01;99340.48;1814257;78;22507;-68
2022/02/20 11:15:17;;;;;;;10.23;2.80;;;;;;;20.10;58.87;99351.69;1824868;76;22190;-69
2022/02/20 11:17:42;;;;;;;8.18;3.10;;;;;;;20.21;59.03;99340.05;1813353;76;22431;-74
2022/02/20 11:20:11;;;;;;;7.17;4.08;;;;;;;20.32;59.21;99336.18;1823886;78;20960;-68
2022/02/20 11:22:37;;;;;;;6.30;3.22;;;;;;;20.41;59.54;99336.08;1815025;78;21123;-65
2022/02/20 11:25:07;;;;;;;12.68;3.30;;;;;;;20.50;59.66;99327.08;1796707;79;21028;-69
2022/02/20 11:27:35;;;;;;;8.23;3.10;;;;;;;20.55;59.73;99319.89;1821828;78;20943;-67
2022/02/20 11:30:03;;;;;;;9.88;3.92;;;;;;;20.63;59.80;99313.30;1835404;76;21082;-66
2022/02/20 11:32:31;;;;;;;6.97;3.27;;;;;;;20.71;59.71;99305.33;1826561;78;21097;-63
2022/02/20 11:34:57;;;;;;;10.32;3.65;;;;;;;20.79;59.58;99305.73;1824373;78;21017;-68
2022/02/20 11:37:24;;;;;;;6.65;3.37;;;;;;;20.86;59.55;99297.48;1815184;78;21079;-65
2022/02/20 11:40:12;;;;;;;8.65;4.12;;;;;;;20.92;59.26;99295.65;1773622;77;21481;-67
2022/02/20 11:42:39;;;;;;;6.30;3.58;;;;;;;20.98;58.95;99286.05;1804810;76;21141;-70
2022/02/20 11:45:08;;;;;;;8.63;3.45;;;;;;;21.05;58.51;99276.41;1800582;78;21013;-67